createdAt,value
2023-01-27T00:12:39.649Z,50
2023-01-27T00:27:41.580Z,0
2023-01-27T00:42:43.475Z,0
2023-01-27T00:57:45.495Z,0
2023-01-27T01:12:47.448Z,0
2023-01-27T01:27:49.380Z,0
2023-01-27T01:42:51.296Z,0
2023-01-27T01:57:53.227Z,0
2023-01-27T02:12:55.109Z,0
2023-01-27T02:27:57.027Z,0
2023-01-27T02:42:58.965Z,0
2023-01-27T02:58:00.950Z,0
2023-01-27T03:13:02.882Z,0
2023-01-27T03:28:04.791Z,0
2023-01-27T03:43:06.690Z,0
2023-01-27T03:58:08.586Z,0
2023-01-27T04:13:10.542Z,0
2023-01-27T04:28:12.458Z,0
2023-01-27T04:43:14.387Z,0
2023-01-27T04:58:16.320Z,0
2023-01-27T05:13:18.299Z,0
2023-01-27T05:28:20.270Z,0
2023-01-27T05:43:22.170Z,0
2023-01-27T05:58:24.062Z,0
2023-01-27T06:13:26.024Z,0
2023-01-27T06:28:29.691Z,0
2023-01-27T06:43:31.975Z,0
2023-01-27T06:58:33.956Z,0
2023-01-27T07:13:35.899Z,0
2023-01-27T07:28:37.780Z,0
2023-01-27T07:43:39.752Z,0
2023-01-27T07:58:41.750Z,0
2023-01-27T08:13:43.691Z,0
2023-01-27T08:28:45.608Z,0
2023-01-27T08:43:47.555Z,0
2023-01-27T08:58:49.414Z,0
2023-01-27T09:13:51.345Z,0
2023-01-27T09:28:53.287Z,0
2023-01-27T09:43:55.245Z,0
2023-01-27T09:58:57.372Z,0
2023-01-27T10:13:59.323Z,0
2023-01-27T10:29:01.223Z,0
2023-01-27T10:44:03.142Z,0
2023-01-27T10:59:05.137Z,0
2023-01-27T11:14:07.047Z,0
2023-01-27T11:29:08.955Z,0
2023-01-27T11:44:10.895Z,0
2023-01-27T11:59:12.889Z,0
2023-01-27T12:14:14.841Z,0
2023-01-27T12:29:16.854Z,0
2023-01-27T12:44:18.807Z,0
2023-01-27T12:59:20.790Z,0
2023-01-27T13:14:22.779Z,0
2023-01-27T13:29:25.012Z,0
2023-01-27T13:44:26.916Z,0
2023-01-27T13:59:28.836Z,0
2023-01-27T14:14:30.815Z,0
2023-01-27T14:29:32.909Z,0
2023-01-27T14:44:43.961Z,0
2023-01-27T14:59:57.340Z,0
2023-01-27T15:14:59.270Z,0
2023-01-27T15:30:01.263Z,0
2023-01-27T15:45:03.175Z,0
2023-01-27T16:00:05.066Z,10
2023-01-27T16:15:07.086Z,10
2023-01-27T16:30:08.995Z,20
2023-01-27T16:45:11.272Z,30
2023-01-27T17:00:13.277Z,40
2023-01-27T17:15:15.567Z,50
2023-01-27T17:30:17.714Z,40
2023-01-27T17:45:19.715Z,40
2023-01-27T18:00:21.697Z,50
2023-01-27T18:15:23.609Z,60
2023-01-27T18:30:25.527Z,60
2023-01-27T18:45:27.484Z,120
2023-01-27T19:00:29.484Z,80
2023-01-27T19:15:31.463Z,100
2023-01-27T19:30:33.441Z,100
2023-01-27T19:45:35.490Z,170
2023-01-27T20:00:37.417Z,260
2023-01-27T20:15:39.285Z,170
2023-01-27T20:30:41.312Z,130
2023-01-27T20:45:43.306Z,130
2023-01-27T21:00:45.332Z,250
2023-01-27T21:15:47.299Z,240
2023-01-27T21:30:49.267Z,320
2023-01-27T21:45:51.234Z,210
2023-01-27T22:00:53.129Z,220
2023-01-27T22:15:55.083Z,180
2023-01-27T22:30:57.075Z,250
2023-01-27T22:45:59.045Z,190
2023-01-27T23:01:01.147Z,160
2023-01-27T23:16:03.132Z,170
2023-01-27T23:31:05.170Z,190
2023-01-27T23:46:07.205Z,150
